Time;durP1;ratioP1;P1;durP2;ratioP2;P2;SDS_P1;SDS_P2;PMS_P1;PMS_P2;Temp;Humidity;BMP_temperature;BMP_pressure;BME280_temperature;BME280_humidity;BME280_pressure;Samples;Min_cycle;Max_cycle;Signal;HPM_P1;HPM_P2
2022/06/01 00:00:48;;;;;;;6.93;4.75;;;;;;;;;;5014921;28;20018;-76
2022/06/01 00:03:13;;;;;;;6.57;4.85;;;;;;;;;;5015243;28;20028;-77
2022/06/01 00:05:39;;;;;;;7.68;4.80;;;;;;;;;;4997458;28;20021;-77
2022/06/01 00:08:05;;;;;;;6.82;4.90;;;;;;;;;;5015229;28;20037;-77
2022/06/01 00:10:30;;;;;;;5.75;4.50;;;;;;;;;;5014765;28;20057;-76
2022/06/01 00:12:56;;;;;;;5.68;4.57;;;;;;;;;;5015140;28;20025;-77
2022/06/01 00:15:24;;;;;;;8.15;4.72;;;;;;;;;;5014985;28;20038;-77
2022/06/01 00:17:49;;;;;;;5.80;4.55;;;;;;;;;;5014937;28;20072;-77
2022/06/01 00:20:14;;;;;;;4.85;4.35;;;;;;;;;;5015338;28;20030;-75
2022/06/01 00:22:41;;;;;;;6.28;4.78;;;;;;;;;;4997196;28;20441;-76
2022/06/01 00:25:11;;;;;;;5.28;4.60;;;;;;;;;;5014929;28;20030;-76
2022/06/01 00:27:37;;;;;;;6.32;5.10;;;;;;;;;;4997277;28;20026;-76
2022/06/01 00:30:05;;;;;;;6.80;5.38;;;;;;;;;;5015358;28;20348;-76
2022/06/01 00:32:30;;;;;;;9.93;5.22;;;;;;;;;;4996680;28;20060;-77
2022/06/01 00:34:58;;;;;;;6.87;5.17;;;;;;;;;;5014587;28;20084;-77
2022/06/01 00:37:23;;;;;;;5.60;4.97;;;;;;;;;;5014437;28;20271;-76
2022/06/01 00:39:48;;;;;;;6.80;4.88;;;;;;;;;;5014661;28;20033;-77
2022/06/01 00:42:24;;;;;;;7.22;5.25;;;;;;;;;;5014307;28;20032;-77
2022/06/01 00:44:51;;;;;;;5.93;5.25;;;;;;;;;;5014461;28;20041;-77
2022/06/01 00:47:17;;;;;;;8.32;6.00;;;;;;;;;;5014220;28;20042;-77
2022/06/01 00:49:51;;;;;;;7.10;6.25;;;;;;;;;;5014393;28;20032;-77
2022/06/01 00:52:35;;;;;;;7.53;6.32;;;;;;;;;;5014118;28;20483;-77
2022/06/01 00:55:01;;;;;;;8.25;6.25;;;;;;;;;;5014375;28;20034;-77
2022/06/01 00:57:26;;;;;;;9.38;6.18;;;;;;;;;;5014250;28;20043;-77
2022/06/01 00:59:54;;;;;;;8.37;6.40;;;;;;;;;;5014170;28;20109;-78
2022/06/01 01:02:22;;;;;;;8.38;6.43;;;;;;;;;;5013895;28;20297;-77
2022/06/01 01:04:47;;;;;;;7.55;6.40;;;;;;;;;;5014595;28;20117;-77
2022/06/01 01:07:13;;;;;;;9.00;6.57;;;;;;;;;;5013923;28;20065;-76
2022/06/01 01:09:39;;;;;;;8.20;6.95;;;;;;;;;;5013877;28;20054;-77
2022/06/01 01:12:07;;;;;;;9.88;7.10;;;;;;;;;;5013674;28;20026;-78
2022/06/01 01:14:38;;;;;;;8.40;7.05;;;;;;;;;;4995281;28;20430;-77
2022/06/01 01:17:05;;;;;;;9.82;7.15;;;;;;;;;;5013820;28;20021;-77
2022/06/01 01:19:37;;;;;;;8.68;7.07;;;;;;;;;;5013985;28;20022;-77
2022/06/01 01:22:21;;;;;;;9.48;7.55;;;;;;;;;;5013757;28;20108;-77
2022/06/01 01:25:18;;;;;;;10.60;7.90;;;;;;;;;;5013859;28;20061;-77
2022/06/01 01:27:45;;;;;;;11.27;8.25;;;;;;;;;;5003615;28;20042;-77
2022/06/01 01:30:35;;;;;;;11.48;8.48;;;;;;;;;;5013518;28;20033;-77
2022/06/01 01:33:09;;;;;;;10.40;8.30;;;;;;;;;;5013400;28;20040;-78
2022/06/01 01:35:35;;;;;;;10.88;8.27;;;;;;;;;;5014089;28;20025;-78
2022/06/01 01:38:06;;;;;;;12.20;8.57;;;;;;;;;;5013543;28;20029;-77
2022/06/01 01:40:31;;;;;;;12.15;9.50;;;;;;;;;;5013433;28;20021;-76
2022/06/01 01:42:58;;;;;;;12.60;9.77;;;;;;;;;;5013393;28;20117;-77
2022/06/01 01:45:30;;;;;;;12.10;9.55;;;;;;;;;;5013444;28;20422;-77
2022/06/01 01:47:55;;;;;;;12.15;9.40;;;;;;;;;;5013722;28;20029;-77
2022/06/01 01:50:22;;;;;;;11.88;9.10;;;;;;;;;;5013399;28;20391;-77
2022/06/01 01:52:47;;;;;;;11.68;9.80;;;;;;;;;;5013353;28;20022;-78
2022/06/01 01:55:50;;;;;;;12.07;9.82;;;;;;;;;;5013741;28;20029;-77
2022/06/01 01:59:02;;;;;;;12.93;9.27;;;;;;;;;;4995631;28;20438;-77
2022/06/01 02:01:37;;;;;;;11.30;9.07;;;;;;;;;;4914898;29;20469;-77
2022/06/01 02:06:03;;;;;;;11.75;9.88;;;;;;;;;;5006732;28;20048;-77
2022/06/01 02:07:03;;;;;;;11.50;9.48;;;;;;;;;;5013083;28;20057;-77
2022/06/01 02:12:40;;;;;;;15.30;10.18;;;;;;;;;;5013236;28;20080;-77
2022/06/01 02:14:58;;;;;;;12.25;10.05;;;;;;;;;;5013331;28;20441;-77
2022/06/01 02:17:38;;;;;;;13.93;10.35;;;;;;;;;;5013207;28;20029;-77
2022/06/01 02:20:16;;;;;;;12.43;9.88;;;;;;;;;;5013543;28;20411;-77
2022/06/01 02:22:44;;;;;;;11.98;9.98;;;;;;;;;;4995673;28;20021;-77
2022/06/01 02:25:11;;;;;;;12.10;9.95;;;;;;;;;;4997388;28;20018;-76
2022/06/01 02:27:39;;;;;;;12.32;9.82;;;;;;;;;;5017099;28;20487;-77
2022/06/01 02:30:10;;;;;;;15.07;10.60;;;;;;;;;;5016957;28;20475;-76
2022/06/01 02:32:38;;;;;;;15.75;10.38;;;;;;;;;;4998834;28;20487;-78
2022/06/01 02:35:05;;;;;;;12.20;9.60;;;;;;;;;;5016905;28;20415;-77
2022/06/01 02:37:33;;;;;;;12.25;9.68;;;;;;;;;;5016918;28;20029;-77
2022/06/01 02:40:00;;;;;;;13.45;10.23;;;;;;;;;;5016560;28;20092;-77
2022/06/01 02:42:25;;;;;;;13.10;10.05;;;;;;;;;;5016466;28;20089;-77
2022/06/01 02:45:00;;;;;;;13.25;9.80;;;;;;;;;;5016426;28;20034;-77
2022/06/01 02:47:28;;;;;;;12.32;9.43;;;;;;;;;;5016462;28;20034;-77
2022/06/01 02:49:53;;;;;;;11.35;10.10;;;;;;;;;;5016631;28;20113;-77
2022/06/01 02:52:19;;;;;;;12.95;9.95;;;;;;;;;;5016502;28;20105;-77
2022/06/01 02:54:45;;;;;;;13.65;10.05;;;;;;;;;;5016615;28;20029;-76
2022/06/01 02:57:10;;;;;;;14.05;10.43;;;;;;;;;;5016237;28;20435;-77
2022/06/01 02:59:36;;;;;;;12.40;10.27;;;;;;;;;;5016329;28;20044;-76
2022/06/01 03:02:03;;;;;;;14.00;10.57;;;;;;;;;;5016169;28;20391;-77
2022/06/01 03:04:28;;;;;;;16.73;10.05;;;;;;;;;;5016583;28;20025;-77
2022/06/01 03:06:53;;;;;;;12.57;10.20;;;;;;;;;;4998638;28;20030;-77
2022/06/01 03:09:21;;;;;;;11.73;9.65;;;;;;;;;;5015902;28;20313;-77
2022/06/01 03:11:47;;;;;;;14.75;10.52;;;;;;;;;;5016354;28;20034;-77
2022/06/01 03:14:12;;;;;;;12.27;10.38;;;;;;;;;;5015900;28;20030;-77
2022/06/01 03:16:37;;;;;;;14.65;10.48;;;;;;;;;;4998310;28;20033;-77
2022/06/01 03:19:03;;;;;;;14.38;10.18;;;;;;;;;;5015767;28;20436;-77
2022/06/01 03:21:29;;;;;;;13.30;10.23;;;;;;;;;;5015690;28;20026;-77
2022/06/01 03:23:55;;;;;;;13.57;9.95;;;;;;;;;;5015925;28;20483;-77
2022/06/01 03:26:21;;;;;;;15.80;9.98;;;;;;;;;;4998035;28;20026;-77
2022/06/01 03:28:46;;;;;;;13.85;9.93;;;;;;;;;;4997932;28;20129;-76
2022/06/01 03:31:11;;;;;;;10.67;8.90;;;;;;;;;;5015406;28;20060;-77
2022/06/01 03:33:36;;;;;;;11.77;8.70;;;;;;;;;;5015443;28;20263;-76
2022/06/01 03:36:03;;;;;;;14.67;9.13;;;;;;;;;;5014566;28;20313;-76
2022/06/01 03:38:29;;;;;;;12.10;8.55;;;;;;;;;;5015520;28;20355;-77
2022/06/01 03:40:54;;;;;;;10.90;9.05;;;;;;;;;;5015348;28;20498;-77
2022/06/01 03:43:22;;;;;;;10.73;8.57;;;;;;;;;;5015335;28;20021;-77
2022/06/01 03:45:56;;;;;;;9.80;8.05;;;;;;;;;;5015635;28;20262;-77
2022/06/01 03:48:23;;;;;;;11.48;8.10;;;;;;;;;;4997760;28;20036;-77
2022/06/01 03:50:48;;;;;;;11.35;7.85;;;;;;;;;;5015091;28;20096;-76
2022/06/01 03:53:14;;;;;;;8.50;7.38;;;;;;;;;;5015122;28;20471;-77
2022/06/01 03:55:41;;;;;;;10.57;8.38;;;;;;;;;;5015247;28;20445;-78
2022/06/01 03:58:06;;;;;;;10.93;8.07;;;;;;;;;;5015196;28;20041;-77
2022/06/01 04:00:32;;;;;;;9.63;8.05;;;;;;;;;;4997500;28;20390;-75
2022/06/01 04:02:57;;;;;;;9.98;8.00;;;;;;;;;;5014951;28;20022;-77
2022/06/01 04:05:22;;;;;;;12.97;8.43;;;;;;;;;;5015089;28;20076;-77
2022/06/01 04:07:48;;;;;;;9.32;7.75;;;;;;;;;;4997447;28;20251;-78
2022/06/01 04:10:14;;;;;;;9.80;8.50;;;;;;;;;;5015609;28;20041;-77
2022/06/01 04:12:39;;;;;;;12.13;8.95;;;;;;;;;;5015225;28;20438;-78
2022/06/01 04:15:06;;;;;;;11.82;8.93;;;;;;;;;;4997364;28;20447;-77
2022/06/01 04:17:31;;;;;;;12.93;8.85;;;;;;;;;;5014992;28;20041;-77
2022/06/01 04:19:57;;;;;;;9.98;8.43;;;;;;;;;;5015298;28;20026;-77
2022/06/01 04:22:22;;;;;;;10.70;8.70;;;;;;;;;;5015003;28;20139;-77
2022/06/01 04:24:47;;;;;;;11.32;8.60;;;;;;;;;;5015187;28;20624;-77
2022/06/01 04:27:13;;;;;;;12.68;9.20;;;;;;;;;;5014978;28;20108;-76
2022/06/01 04:29:39;;;;;;;11.52;8.82;;;;;;;;;;5014818;28;20026;-76
2022/06/01 04:32:09;;;;;;;12.13;9.40;;;;;;;;;;4997036;28;20030;-77
2022/06/01 04:34:34;;;;;;;15.05;9.70;;;;;;;;;;5015080;28;20029;-78
2022/06/01 04:37:00;;;;;;;12.32;8.93;;;;;;;;;;5014963;28;20022;-77
2022/06/01 04:39:25;;;;;;;12.32;9.05;;;;;;;;;;4997169;28;20061;-77
2022/06/01 04:41:51;;;;;;;12.57;9.43;;;;;;;;;;5014483;28;20025;-77
2022/06/01 04:44:16;;;;;;;12.60;9.52;;;;;;;;;;5014374;28;20030;-76
2022/06/01 04:46:42;;;;;;;14.88;9.05;;;;;;;;;;5014624;28;20018;-77
2022/06/01 04:49:08;;;;;;;13.70;9.55;;;;;;;;;;5014111;28;20104;-77
2022/06/01 04:51:37;;;;;;;13.55;9.85;;;;;;;;;;5013938;28;20025;-77
2022/06/01 04:54:02;;;;;;;13.60;9.98;;;;;;;;;;5014511;28;20064;-77
2022/06/01 04:56:28;;;;;;;15.25;10.27;;;;;;;;;;5014057;28;20054;-77
2022/06/01 04:58:53;;;;;;;14.73;10.40;;;;;;;;;;4996450;28;20057;-77
2022/06/01 05:01:18;;;;;;;13.23;10.43;;;;;;;;;;5013985;28;20476;-77
2022/06/01 05:03:44;;;;;;;13.77;10.30;;;;;;;;;;5014417;28;20808;-77
2022/06/01 05:06:09;;;;;;;17.65;9.80;;;;;;;;;;5013841;28;20105;-77
2022/06/01 05:08:34;;;;;;;17.70;10.80;;;;;;;;;;5014144;28;20475;-77
2022/06/01 05:11:00;;;;;;;14.38;10.30;;;;;;;;;;5013585;28;20329;-76
2022/06/01 05:13:25;;;;;;;14.23;10.35;;;;;;;;;;4996070;28;20022;-76
2022/06/01 05:15:53;;;;;;;15.40;10.88;;;;;;;;;;5013544;28;20030;-77
2022/06/01 05:18:19;;;;;;;14.93;10.32;;;;;;;;;;4995922;28;20025;-77
2022/06/01 05:20:44;;;;;;;15.25;10.70;;;;;;;;;;5013879;28;20018;-76
2022/06/01 05:23:10;;;;;;;12.88;10.25;;;;;;;;;;5013918;28;20029;-77
2022/06/01 05:25:35;;;;;;;14.15;10.02;;;;;;;;;;5013621;28;20030;-76
2022/06/01 05:28:00;;;;;;;17.53;10.27;;;;;;;;;;5013832;28;20028;-77
2022/06/01 05:30:26;;;;;;;16.63;10.40;;;;;;;;;;5013345;28;20373;-76
2022/06/01 05:32:52;;;;;;;13.90;11.10;;;;;;;;;;5013535;28;20077;-76
2022/06/01 05:35:18;;;;;;;13.45;10.48;;;;;;;;;;5013851;28;20041;-76
2022/06/01 05:37:43;;;;;;;15.70;11.38;;;;;;;;;;5013417;28;20026;-76
2022/06/01 05:40:09;;;;;;;15.73;11.35;;;;;;;;;;5013459;28;20025;-76
2022/06/01 05:42:34;;;;;;;14.68;10.60;;;;;;;;;;5013190;28;20022;-77
2022/06/01 05:44:59;;;;;;;15.07;9.93;;;;;;;;;;5013615;28;20034;-75
2022/06/01 05:47:24;;;;;;;14.20;10.33;;;;;;;;;;5013329;28;20321;-76
2022/06/01 05:49:50;;;;;;;12.25;9.20;;;;;;;;;;5013278;28;20275;-77
2022/06/01 05:52:18;;;;;;;12.88;9.73;;;;;;;;;;4995683;28;20081;-76
2022/06/01 05:54:45;;;;;;;14.00;10.05;;;;;;;;;;5013413;28;20053;-76
2022/06/01 05:57:10;;;;;;;13.02;9.45;;;;;;;;;;5013418;28;20037;-77
2022/06/01 05:59:35;;;;;;;11.90;9.47;;;;;;;;;;5014677;28;20021;-77
2022/06/01 06:02:01;;;;;;;14.77;9.80;;;;;;;;;;5016904;28;20270;-76
2022/06/01 06:04:26;;;;;;;11.67;9.17;;;;;;;;;;5016989;28;20026;-76
2022/06/01 06:06:51;;;;;;;12.80;9.35;;;;;;;;;;5016766;28;20341;-76
2022/06/01 06:09:16;;;;;;;11.43;8.73;;;;;;;;;;4999346;28;20033;-76
2022/06/01 06:11:42;;;;;;;11.85;8.55;;;;;;;;;;5016969;28;20263;-77
2022/06/01 06:14:07;;;;;;;11.60;8.63;;;;;;;;;;5016925;28;20072;-76
2022/06/01 06:16:36;;;;;;;11.18;8.57;;;;;;;;;;5016844;28;20267;-77
2022/06/01 06:19:03;;;;;;;8.70;7.10;;;;;;;;;;5016827;28;20061;-76
2022/06/01 06:21:30;;;;;;;11.50;8.57;;;;;;;;;;5017005;28;20029;-76
2022/06/01 06:24:03;;;;;;;8.93;7.38;;;;;;;;;;5016902;28;20033;-77
2022/06/01 06:26:29;;;;;;;7.95;6.13;;;;;;;;;;4999721;28;20022;-76
2022/06/01 06:28:54;;;;;;;8.57;6.05;;;;;;;;;;5016607;28;20033;-77
2022/06/01 06:31:20;;;;;;;5.78;4.72;;;;;;;;;;5016483;28;20112;-76
2022/06/01 06:33:45;;;;;;;5.63;4.40;;;;;;;;;;5016941;28;20025;-77
2022/06/01 06:36:13;;;;;;;6.88;5.18;;;;;;;;;;5016472;28;20479;-75
2022/06/01 06:38:39;;;;;;;7.00;5.43;;;;;;;;;;5016725;28;20033;-76
2022/06/01 06:41:05;;;;;;;11.32;5.10;;;;;;;;;;5017060;28;20034;-77
2022/06/01 06:43:33;;;;;;;8.98;6.10;;;;;;;;;;5016314;28;20490;-77
2022/06/01 06:46:02;;;;;;;6.22;5.30;;;;;;;;;;4998329;28;20049;-77
2022/06/01 06:48:27;;;;;;;6.53;4.28;;;;;;;;;;5016355;28;20032;-76
2022/06/01 06:50:53;;;;;;;7.95;4.30;;;;;;;;;;5016108;28;20038;-75
2022/06/01 06:53:18;;;;;;;5.80;3.90;;;;;;;;;;5016565;28;20079;-78
2022/06/01 06:55:44;;;;;;;4.72;4.22;;;;;;;;;;5016444;28;20029;-76
2022/06/01 06:58:10;;;;;;;11.38;4.22;;;;;;;;;;5016095;28;20029;-77
2022/06/01 07:00:36;;;;;;;6.88;4.07;;;;;;;;;;5015929;28;20025;-76
2022/06/01 07:03:02;;;;;;;6.30;3.78;;;;;;;;;;5016231;28;20022;-77
2022/06/01 07:08:11;;;;;;;;;;;;;;;;;;5016361;28;20541;-77
2022/06/01 07:10:37;;;;;;;3.73;2.73;;;;;;;;;;5015636;28;19961;-76
2022/06/01 07:13:02;;;;;;;4.23;2.67;;;;;;;;;;5016211;28;20080;-77
2022/06/01 07:15:27;;;;;;;4.73;2.40;;;;;;;;;;5015816;28;20251;-77
2022/06/01 07:17:52;;;;;;;1.88;1.70;;;;;;;;;;5015880;28;20339;-77
2022/06/01 07:20:18;;;;;;;3.78;1.52;;;;;;;;;;5015922;28;20022;-77
2022/06/01 07:22:44;;;;;;;1.85;1.48;;;;;;;;;;5015349;28;20033;-77
2022/06/01 07:25:12;;;;;;;3.20;1.50;;;;;;;;;;5015682;28;20030;-77
2022/06/01 07:27:37;;;;;;;1.67;1.50;;;;;;;;;;5015735;28;20740;-77
2022/06/01 07:30:04;;;;;;;3.70;1.48;;;;;;;;;;5015917;28;20029;-76
2022/06/01 07:32:30;;;;;;;3.97;1.70;;;;;;;;;;5015307;28;20022;-77
2022/06/01 07:34:55;;;;;;;2.73;1.60;;;;;;;;;;5015828;28;20068;-77
2022/06/01 07:43:06;;;;;;;1.50;1.35;;;;;;;;;;5015214;28;20406;-77
2022/06/01 07:45:37;;;;;;;7.05;1.80;;;;;;;;;;5015679;28;20030;-77
2022/06/01 07:48:04;;;;;;;2.47;1.55;;;;;;;;;;4997648;28;20034;-77
2022/06/01 07:50:30;;;;;;;2.55;1.80;;;;;;;;;;5015011;28;20064;-77
2022/06/01 07:52:56;;;;;;;3.00;1.50;;;;;;;;;;5015238;28;20029;-77
2022/06/01 07:55:21;;;;;;;2.33;1.70;;;;;;;;;;5015055;28;20033;-76
2022/06/01 07:57:46;;;;;;;2.35;1.52;;;;;;;;;;5015020;28;20041;-77
2022/06/01 08:00:12;;;;;;;2.00;1.60;;;;;;;;;;5015104;28;20434;-76
2022/06/01 08:02:38;;;;;;;1.95;1.70;;;;;;;;;;5014849;28;20748;-77
2022/06/01 08:05:05;;;;;;;2.55;1.77;;;;;;;;;;4997250;28;20022;-77
2022/06/01 08:07:30;;;;;;;2.03;1.77;;;;;;;;;;5015164;28;20490;-76
2022/06/01 08:09:55;;;;;;;3.70;1.90;;;;;;;;;;5014684;28;20068;-77
2022/06/01 08:15:05;;;;;;;5.32;1.70;;;;;;;;;;5015362;28;20275;-77
2022/06/01 08:17:31;;;;;;;8.05;2.15;;;;;;;;;;5014557;28;20030;-77
2022/06/01 08:19:56;;;;;;;2.30;1.67;;;;;;;;;;4997058;28;20064;-77
2022/06/01 08:22:21;;;;;;;2.60;1.90;;;;;;;;;;5013870;28;20255;-77
2022/06/01 08:24:46;;;;;;;3.47;1.70;;;;;;;;;;5014765;28;20275;-77
2022/06/01 08:27:11;;;;;;;4.07;1.88;;;;;;;;;;5014565;28;20026;-77
2022/06/01 08:29:37;;;;;;;3.10;1.60;;;;;;;;;;5014423;28;20396;-77
2022/06/01 08:32:04;;;;;;;4.43;1.80;;;;;;;;;;5014111;28;20255;-75
2022/06/01 08:34:29;;;;;;;2.38;1.50;;;;;;;;;;5014412;28;20030;-77
2022/06/01 08:36:54;;;;;;;4.28;1.50;;;;;;;;;;5014905;28;20080;-77
2022/06/01 08:39:19;;;;;;;1.97;1.40;;;;;;;;;;5014675;28;20391;-77
2022/06/01 08:41:44;;;;;;;1.50;1.23;;;;;;;;;;4996835;28;20610;-77
2022/06/01 08:44:30;;;;;;;2.13;1.30;;;;;;;;;;5015049;28;20032;-78
2022/06/01 08:47:04;;;;;;;3.05;1.60;;;;;;;;;;5014402;28;20471;-77
2022/06/01 08:49:33;;;;;;;4.15;1.50;;;;;;;;;;5014267;28;20030;-77
2022/06/01 08:51:59;;;;;;;3.75;1.60;;;;;;;;;;5014363;28;20116;-77
2022/06/01 08:54:24;;;;;;;3.58;1.35;;;;;;;;;;5014382;28;20054;-78
2022/06/01 08:56:53;;;;;;;1.83;1.40;;;;;;;;;;5014574;28;20459;-77
2022/06/01 08:59:40;;;;;;;2.25;1.55;;;;;;;;;;5013918;28;20022;-77
2022/06/01 09:02:35;;;;;;;2.17;1.27;;;;;;;;;;4996475;28;20053;-77
2022/06/01 09:05:18;;;;;;;1.67;1.30;;;;;;;;;;5013965;28;20155;-77
2022/06/01 09:07:57;;;;;;;3.83;1.40;;;;;;;;;;4996621;28;20064;-77
2022/06/01 09:10:44;;;;;;;1.27;1.13;;;;;;;;;;4996237;28;20033;-76
2022/06/01 09:13:13;;;;;;;3.58;1.50;;;;;;;;;;5015392;28;20095;-76
2022/06/01 09:15:49;;;;;;;2.28;1.33;;;;;;;;;;5014487;28;20018;-77
2022/06/01 09:18:21;;;;;;;1.20;1.10;;;;;;;;;;5027107;28;20114;-76
2022/06/01 09:23:31;;;;;;;1.42;1.00;;;;;;;;;;5025071;28;20037;-75
2022/06/01 09:25:57;;;;;;;1.92;1.13;;;;;;;;;;5005382;28;20025;-76
2022/06/01 09:28:26;;;;;;;1.45;1.13;;;;;;;;;;5024669;28;20026;-77
2022/06/01 09:30:58;;;;;;;2.25;1.30;;;;;;;;;;5006185;28;20022;-76
2022/06/01 09:33:27;;;;;;;2.10;1.30;;;;;;;;;;5024896;28;20037;-75
2022/06/01 09:36:06;;;;;;;2.35;1.20;;;;;;;;;;5021626;28;20050;-76
2022/06/01 09:38:46;;;;;;;1.45;1.00;;;;;;;;;;5024617;28;20088;-76
2022/06/01 09:41:36;;;;;;;4.88;1.17;;;;;;;;;;5005746;28;20018;-76
2022/06/01 09:44:10;;;;;;;1.23;1.10;;;;;;;;;;5021402;28;20029;-75
2022/06/01 09:46:47;;;;;;;1.75;1.40;;;;;;;;;;5025494;28;20547;-76
2022/06/01 09:49:31;;;;;;;2.35;1.20;;;;;;;;;;5022198;28;20127;-76
2022/06/01 09:52:02;;;;;;;2.17;1.17;;;;;;;;;;5025503;28;20625;-76
2022/06/01 09:54:31;;;;;;;1.95;1.33;;;;;;;;;;5024663;28;20034;-76
2022/06/01 09:57:13;;;;;;;2.47;1.60;;;;;;;;;;5025468;28;20382;-76
2022/06/01 10:08:26;;;;;;;2.03;1.58;;;;;;;;;;5013468;28;20025;-76
2022/06/01 10:10:59;;;;;;;3.65;1.48;;;;;;;;;;5012919;28;20033;-76
2022/06/01 10:13:46;;;;;;;3.67;1.58;;;;;;;;;;5013292;28;20029;-76
2022/06/01 10:16:38;;;;;;;2.10;1.27;;;;;;;;;;5013107;28;20041;-77
2022/06/01 10:19:07;;;;;;;2.20;1.60;;;;;;;;;;4985516;28;20033;-77
2022/06/01 10:21:44;;;;;;;2.17;1.70;;;;;;;;;;5013313;28;20115;-77
2022/06/01 10:24:15;;;;;;;2.88;1.60;;;;;;;;;;5013037;28;20109;-77
2022/06/01 10:26:55;;;;;;;1.80;1.30;;;;;;;;;;4995474;28;20026;-77
2022/06/01 10:29:30;;;;;;;2.50;1.70;;;;;;;;;;5013395;28;20026;-77
2022/06/01 10:32:05;;;;;;;2.65;1.70;;;;;;;;;;5012804;28;20108;-78
2022/06/01 10:34:37;;;;;;;3.10;1.60;;;;;;;;;;5013426;28;20161;-77
2022/06/01 10:37:18;;;;;;;2.80;1.60;;;;;;;;;;5013304;28;20083;-77
2022/06/01 10:40:07;;;;;;;1.88;1.42;;;;;;;;;;4995339;28;20113;-77
2022/06/01 10:45:29;;;;;;;3.72;1.40;;;;;;;;;;5014044;28;20061;-77
2022/06/01 10:48:06;;;;;;;2.22;1.42;;;;;;;;;;5016522;28;20022;-77
2022/06/01 10:50:54;;;;;;;2.15;1.50;;;;;;;;;;5016967;28;20026;-78
2022/06/01 10:53:45;;;;;;;1.80;1.40;;;;;;;;;;5016589;28;20069;-78
2022/06/01 10:56:11;;;;;;;1.95;1.40;;;;;;;;;;5016912;28;20018;-77
2022/06/01 10:58:37;;;;;;;3.70;1.45;;;;;;;;;;5016320;28;20487;-75
2022/06/01 11:01:20;;;;;;;2.22;1.52;;;;;;;;;;5016748;28;20026;-78
2022/06/01 11:04:17;;;;;;;1.70;1.33;;;;;;;;;;5017131;28;20470;-77
2022/06/01 11:06:53;;;;;;;5.25;1.40;;;;;;;;;;5016408;28;20040;-77
2022/06/01 11:09:54;;;;;;;2.83;1.27;;;;;;;;;;5016497;28;20038;-76
2022/06/01 11:12:41;;;;;;;3.35;1.40;;;;;;;;;;5016117;28;20026;-77
2022/06/01 11:15:24;;;;;;;4.95;1.70;;;;;;;;;;4998637;28;20519;-77
2022/06/01 11:18:03;;;;;;;2.50;1.30;;;;;;;;;;5016391;28;20017;-77
2022/06/01 11:20:40;;;;;;;2.47;1.30;;;;;;;;;;5016468;28;20026;-77
2022/06/01 11:23:25;;;;;;;6.28;1.50;;;;;;;;;;4998385;28;20083;-77
2022/06/01 11:26:01;;;;;;;1.92;1.27;;;;;;;;;;5016258;28;20018;-78
2022/06/01 11:28:55;;;;;;;2.13;1.50;;;;;;;;;;5016099;28;20026;-78
2022/06/01 11:31:23;;;;;;;3.65;1.38;;;;;;;;;;5015907;28;20022;-77
2022/06/01 11:33:57;;;;;;;2.97;1.42;;;;;;;;;;5016341;28;20037;-77
2022/06/01 11:36:52;;;;;;;2.75;1.30;;;;;;;;;;5016256;28;20034;-78
2022/06/01 11:39:46;;;;;;;2.42;1.52;;;;;;;;;;5014720;28;20568;-77
2022/06/01 11:42:55;;;;;;;7.97;1.77;;;;;;;;;;5014875;28;20042;-77
2022/06/01 11:45:26;;;;;;;4.72;1.70;;;;;;;;;;4917089;29;20044;-77
2022/06/01 11:47:55;;;;;;;2.92;1.65;;;;;;;;;;5003367;28;20056;-78
2022/06/01 11:50:48;;;;;;;3.53;1.60;;;;;;;;;;5015426;28;20064;-77
2022/06/01 11:53:28;;;;;;;4.07;1.83;;;;;;;;;;5015323;28;20021;-77
2022/06/01 11:56:09;;;;;;;2.13;1.45;;;;;;;;;;5015433;28;20391;-79
2022/06/01 11:58:35;;;;;;;4.82;1.70;;;;;;;;;;4997162;28;20512;-77
2022/06/01 12:01:15;;;;;;;2.93;1.47;;;;;;;;;;5015538;28;20104;-77
2022/06/01 12:04:17;;;;;;;4.22;1.50;;;;;;;;;;5021039;28;20120;-77
2022/06/01 12:07:08;;;;;;;1.95;1.42;;;;;;;;;;4980452;28;20088;-76
2022/06/01 12:09:36;;;;;;;4.10;1.73;;;;;;;;;;5015384;28;20033;-76
2022/06/01 12:12:03;;;;;;;1.58;1.33;;;;;;;;;;5015156;28;20153;-77
2022/06/01 12:14:57;;;;;;;2.15;1.40;;;;;;;;;;5014839;28;20061;-76
2022/06/01 12:17:24;;;;;;;4.05;1.60;;;;;;;;;;5015115;28;20025;-77
2022/06/01 12:19:52;;;;;;;2.20;1.40;;;;;;;;;;4997380;28;20145;-77
2022/06/01 12:28:31;;;;;;;3.45;1.48;;;;;;;;;;5015202;28;20440;-77
2022/06/01 12:31:12;;;;;;;1.77;1.50;;;;;;;;;;5014382;28;20059;-76
2022/06/01 12:34:06;;;;;;;3.05;1.40;;;;;;;;;;4996785;28;20121;-77
2022/06/01 12:36:37;;;;;;;5.07;1.80;;;;;;;;;;5014673;28;20034;-77
2022/06/01 12:39:13;;;;;;;2.30;1.40;;;;;;;;;;4996940;28;20037;-77
2022/06/01 12:41:44;;;;;;;2.83;1.48;;;;;;;;;;5014706;28;20034;-77
2022/06/01 12:44:10;;;;;;;4.75;1.50;;;;;;;;;;4996973;28;20168;-75
2022/06/01 12:46:40;;;;;;;1.77;1.55;;;;;;;;;;4996414;28;20069;-77
2022/06/01 12:49:30;;;;;;;4.32;2.38;;;;;;;;;;5014274;28;20375;-76
2022/06/01 12:52:08;;;;;;;1.98;1.40;;;;;;;;;;5013849;28;20025;-75
2022/06/01 12:54:36;;;;;;;4.00;1.35;;;;;;;;;;4996613;28;20057;-77
2022/06/01 12:57:04;;;;;;;5.25;1.50;;;;;;;;;;5014096;28;20045;-77
2022/06/01 12:59:40;;;;;;;8.48;1.40;;;;;;;;;;5014349;28;20026;-77
2022/06/01 13:02:10;;;;;;;1.77;1.30;;;;;;;;;;4996352;28;20034;-76
2022/06/01 13:04:36;;;;;;;2.05;1.30;;;;;;;;;;5014042;28;20033;-76
2022/06/01 13:07:03;;;;;;;1.67;1.20;;;;;;;;;;5014250;28;20033;-77
2022/06/01 13:09:31;;;;;;;2.47;1.30;;;;;;;;;;5013988;28;20038;-77
2022/06/01 13:12:01;;;;;;;2.10;1.23;;;;;;;;;;5013863;28;20051;-77
2022/06/01 13:14:29;;;;;;;1.90;1.30;;;;;;;;;;5014057;28;20507;-78
2022/06/01 13:17:10;;;;;;;2.20;1.48;;;;;;;;;;5013651;28;20033;-77
2022/06/01 13:19:35;;;;;;;2.08;1.50;;;;;;;;;;5014102;28;20379;-77
2022/06/01 13:22:15;;;;;;;3.10;1.38;;;;;;;;;;5013452;28;20032;-77
2022/06/01 13:24:47;;;;;;;5.47;1.23;;;;;;;;;;5013525;28;20383;-76
2022/06/01 13:27:13;;;;;;;6.38;1.27;;;;;;;;;;4996031;28;20044;-78
2022/06/01 13:29:48;;;;;;;1.90;1.08;;;;;;;;;;5013528;28;20483;-76
2022/06/01 13:32:17;;;;;;;3.65;1.27;;;;;;;;;;5013368;28;20025;-77
2022/06/01 13:34:51;;;;;;;3.60;1.20;;;;;;;;;;5013678;28;20025;-77
2022/06/01 13:37:19;;;;;;;7.25;2.03;;;;;;;;;;5013908;28;20136;-78
2022/06/01 13:40:06;;;;;;;3.38;1.38;;;;;;;;;;5013688;28;20030;-77
2022/06/01 13:42:37;;;;;;;1.63;1.05;;;;;;;;;;5013340;28;20025;-78
2022/06/01 13:45:13;;;;;;;1.42;1.30;;;;;;;;;;4995817;28;20025;-78
2022/06/01 13:47:40;;;;;;;4.43;1.30;;;;;;;;;;5013619;28;20061;-77
2022/06/01 13:50:14;;;;;;;2.25;1.00;;;;;;;;;;5013196;28;20057;-77
2022/06/01 13:52:45;;;;;;;2.08;1.20;;;;;;;;;;5013280;28;20026;-77
2022/06/01 13:55:23;;;;;;;1.25;1.15;;;;;;;;;;5013210;28;20510;-77
2022/06/01 13:57:53;;;;;;;4.68;1.30;;;;;;;;;;5013328;28;20025;-77
2022/06/01 14:00:32;;;;;;;1.98;1.20;;;;;;;;;;5013128;28;20475;-77
2022/06/01 14:03:25;;;;;;;1.73;1.17;;;;;;;;;;5013030;28;20109;-77
2022/06/01 14:05:57;;;;;;;3.60;1.40;;;;;;;;;;5009460;28;20041;-77
2022/06/01 14:08:28;;;;;;;2.50;1.15;;;;;;;;;;5013439;28;20382;-77
2022/06/01 14:10:54;;;;;;;4.03;1.05;;;;;;;;;;4995510;28;20036;-77
2022/06/01 14:13:22;;;;;;;4.05;1.48;;;;;;;;;;5013116;28;20116;-77
2022/06/01 14:15:48;;;;;;;1.70;1.20;;;;;;;;;;5013499;28;20061;-78
2022/06/01 14:18:22;;;;;;;4.00;1.30;;;;;;;;;;5013237;28;20065;-77
2022/06/01 14:20:51;;;;;;;1.35;1.02;;;;;;;;;;5015170;28;20026;-77
2022/06/01 14:23:18;;;;;;;2.08;1.30;;;;;;;;;;5017063;28;20475;-77
2022/06/01 14:28:30;;;;;;;3.38;1.50;;;;;;;;;;5017189;28;20077;-77
2022/06/01 14:31:11;;;;;;;1.85;1.40;;;;;;;;;;5016710;28;20038;-77
2022/06/01 14:33:38;;;;;;;3.70;1.35;;;;;;;;;;5016673;28;20088;-77
2022/06/01 14:36:04;;;;;;;2.45;1.25;;;;;;;;;;5017115;28;20109;-77
2022/06/01 14:38:30;;;;;;;1.30;1.20;;;;;;;;;;5016801;28;20029;-77
2022/06/01 14:40:59;;;;;;;3.40;1.40;;;;;;;;;;4999000;28;20022;-79
2022/06/01 14:43:27;;;;;;;2.47;1.13;;;;;;;;;;5016959;28;20029;-77
2022/06/01 14:45:53;;;;;;;3.08;1.48;;;;;;;;;;4999120;28;20022;-76
2022/06/01 14:48:18;;;;;;;2.70;1.40;;;;;;;;;;5016582;28;20044;-77
2022/06/01 14:50:43;;;;;;;1.83;1.00;;;;;;;;;;5017116;28;20042;-77
2022/06/01 14:53:21;;;;;;;2.35;1.20;;;;;;;;;;4999125;28;20357;-78
2022/06/01 14:55:47;;;;;;;2.53;1.23;;;;;;;;;;5016665;28;20438;-77
2022/06/01 14:58:12;;;;;;;3.83;1.40;;;;;;;;;;5016958;28;20025;-79
2022/06/01 15:00:38;;;;;;;2.15;1.20;;;;;;;;;;5017055;28;20108;-75
2022/06/01 15:03:03;;;;;;;1.83;1.25;;;;;;;;;;5016466;28;20110;-77
2022/06/01 15:05:29;;;;;;;1.23;1.13;;;;;;;;;;5016082;28;20053;-78
2022/06/01 15:07:54;;;;;;;1.95;1.30;;;;;;;;;;5016458;28;20065;-77
2022/06/01 15:10:20;;;;;;;1.67;1.30;;;;;;;;;;4998685;28;20515;-77
2022/06/01 15:12:45;;;;;;;1.92;1.10;;;;;;;;;;4998463;28;20602;-76
2022/06/01 15:15:11;;;;;;;1.83;1.10;;;;;;;;;;5016314;28;20045;-77
2022/06/01 15:17:37;;;;;;;1.85;1.25;;;;;;;;;;4998496;28;20032;-77
2022/06/01 15:20:04;;;;;;;1.88;1.45;;;;;;;;;;4998514;28;20025;-77
2022/06/01 15:22:30;;;;;;;1.58;1.30;;;;;;;;;;5015953;28;20026;-77
2022/06/01 15:24:55;;;;;;;1.42;1.23;;;;;;;;;;4998333;28;20526;-78
2022/06/01 15:27:23;;;;;;;3.43;1.20;;;;;;;;;;5015670;28;20026;-77
2022/06/01 15:40:45;;;;;;;2.08;1.30;;;;;;;;;;5015825;28;20509;-77
2022/06/01 15:43:10;;;;;;;1.63;1.20;;;;;;;;;;4998634;28;20117;-77
2022/06/01 15:45:39;;;;;;;3.30;1.23;;;;;;;;;;4997961;28;20084;-76